sensor_id;sensor_type;location;lat;lon;timestamp;P1;durP1;ratioP1;P2;durP2;ratioP2
12707;SDS011;6418;50.824;4.718;2023-08-06T00:01:10;11.23;;;4.43;;
12707;SDS011;6418;50.824;4.718;2023-08-06T00:03:37;11.23;;;4.17;;
12707;SDS011;6418;50.824;4.718;2023-08-06T00:06:04;12.13;;;4.50;;
12707;SDS011;6418;50.824;4.718;2023-08-06T00:08:32;12.23;;;4.33;;
12707;SDS011;6418;50.824;4.718;2023-08-06T00:10:59;15.20;;;4.40;;
12707;SDS011;6418;50.824;4.718;2023-08-06T00:13:26;10.47;;;4.70;;
12707;SDS011;6418;50.824;4.718;2023-08-06T00:15:52;14.03;;;4.50;;
12707;SDS011;6418;50.824;4.718;2023-08-06T00:18:21;14.33;;;4.60;;
12707;SDS011;6418;50.824;4.718;2023-08-06T00:20:48;11.13;;;4.60;;
12707;SDS011;6418;50.824;4.718;2023-08-06T00:23:15;10.03;;;4.40;;
12707;SDS011;6418;50.824;4.718;2023-08-06T00:25:43;12.33;;;4.37;;
12707;SDS011;6418;50.824;4.718;2023-08-06T00:28:10;11.63;;;5.10;;
12707;SDS011;6418;50.824;4.718;2023-08-06T00:30:37;10.27;;;4.47;;
12707;SDS011;6418;50.824;4.718;2023-08-06T00:33:03;10.57;;;4.60;;
12707;SDS011;6418;50.824;4.718;2023-08-06T00:35:35;11.90;;;4.20;;
12707;SDS011;6418;50.824;4.718;2023-08-06T00:38:02;11.67;;;4.57;;
12707;SDS011;6418;50.824;4.718;2023-08-06T00:40:29;12.57;;;4.53;;
12707;SDS011;6418;50.824;4.718;2023-08-06T00:42:56;12.80;;;4.70;;
12707;SDS011;6418;50.824;4.718;2023-08-06T00:45:22;9.90;;;4.90;;
12707;SDS011;6418;50.824;4.718;2023-08-06T00:47:50;12.57;;;4.63;;
12707;SDS011;6418;50.824;4.718;2023-08-06T00:50:17;12.43;;;4.93;;
12707;SDS011;6418;50.824;4.718;2023-08-06T00:52:47;12.83;;;4.97;;
12707;SDS011;6418;50.824;4.718;2023-08-06T00:55:14;12.67;;;5.03;;
12707;SDS011;6418;50.824;4.718;2023-08-06T00:57:42;11.57;;;4.90;;
12707;SDS011;6418;50.824;4.718;2023-08-06T01:00:09;15.60;;;5.70;;
12707;SDS011;6418;50.824;4.718;2023-08-06T01:02:37;14.70;;;5.40;;
12707;SDS011;6418;50.824;4.718;2023-08-06T01:05:04;12.60;;;5.50;;
12707;SDS011;6418;50.824;4.718;2023-08-06T01:07:35;14.83;;;4.93;;
12707;SDS011;6418;50.824;4.718;2023-08-06T01:10:19;15.73;;;6.00;;
12707;SDS011;6418;50.824;4.718;2023-08-06T01:12:55;13.03;;;5.77;;
12707;SDS011;6418;50.824;4.718;2023-08-06T01:15:31;14.17;;;6.10;;
12707;SDS011;6418;50.824;4.718;2023-08-06T01:18:01;15.43;;;5.90;;
12707;SDS011;6418;50.824;4.718;2023-08-06T01:20:30;15.03;;;6.20;;
12707;SDS011;6418;50.824;4.718;2023-08-06T01:22:58;18.73;;;6.50;;
12707;SDS011;6418;50.824;4.718;2023-08-06T01:25:26;16.40;;;6.70;;
12707;SDS011;6418;50.824;4.718;2023-08-06T01:27:58;16.87;;;6.80;;
12707;SDS011;6418;50.824;4.718;2023-08-06T01:30:33;15.50;;;7.43;;
12707;SDS011;6418;50.824;4.718;2023-08-06T01:33:04;19.47;;;7.40;;
12707;SDS011;6418;50.824;4.718;2023-08-06T01:35:33;18.67;;;7.97;;
12707;SDS011;6418;50.824;4.718;2023-08-06T01:38:02;20.37;;;8.03;;
12707;SDS011;6418;50.824;4.718;2023-08-06T01:40:29;19.10;;;8.73;;
12707;SDS011;6418;50.824;4.718;2023-08-06T01:42:57;18.73;;;8.90;;
12707;SDS011;6418;50.824;4.718;2023-08-06T01:45:24;18.13;;;9.37;;
12707;SDS011;6418;50.824;4.718;2023-08-06T01:47:51;19.93;;;9.30;;
12707;SDS011;6418;50.824;4.718;2023-08-06T01:50:18;20.37;;;9.10;;
12707;SDS011;6418;50.824;4.718;2023-08-06T01:52:47;19.57;;;9.43;;
12707;SDS011;6418;50.824;4.718;2023-08-06T01:55:14;21.23;;;9.07;;
12707;SDS011;6418;50.824;4.718;2023-08-06T01:57:41;21.30;;;10.20;;
12707;SDS011;6418;50.824;4.718;2023-08-06T02:00:08;19.57;;;10.33;;
12707;SDS011;6418;50.824;4.718;2023-08-06T02:02:36;19.37;;;9.83;;
12707;SDS011;6418;50.824;4.718;2023-08-06T02:05:03;22.60;;;11.87;;
12707;SDS011;6418;50.824;4.718;2023-08-06T02:07:30;23.87;;;11.53;;
12707;SDS011;6418;50.824;4.718;2023-08-06T02:09:59;28.43;;;12.20;;
12707;SDS011;6418;50.824;4.718;2023-08-06T02:12:26;22.13;;;11.70;;
12707;SDS011;6418;50.824;4.718;2023-08-06T02:14:53;24.07;;;12.73;;
12707;SDS011;6418;50.824;4.718;2023-08-06T02:17:20;22.80;;;12.40;;
12707;SDS011;6418;50.824;4.718;2023-08-06T02:19:47;27.20;;;12.03;;
12707;SDS011;6418;50.824;4.718;2023-08-06T02:22:14;27.80;;;12.93;;
12707;SDS011;6418;50.824;4.718;2023-08-06T02:24:41;28.00;;;12.80;;
12707;SDS011;6418;50.824;4.718;2023-08-06T02:27:09;25.40;;;13.10;;
12707;SDS011;6418;50.824;4.718;2023-08-06T02:29:36;25.03;;;13.07;;
12707;SDS011;6418;50.824;4.718;2023-08-06T02:32:03;24.20;;;13.50;;
12707;SDS011;6418;50.824;4.718;2023-08-06T02:34:31;23.40;;;12.33;;
12707;SDS011;6418;50.824;4.718;2023-08-06T02:36:58;23.33;;;12.23;;
12707;SDS011;6418;50.824;4.718;2023-08-06T02:39:25;24.67;;;13.10;;
12707;SDS011;6418;50.824;4.718;2023-08-06T02:41:52;23.37;;;12.63;;
12707;SDS011;6418;50.824;4.718;2023-08-06T02:44:20;23.77;;;12.27;;
12707;SDS011;6418;50.824;4.718;2023-08-06T02:46:47;25.47;;;13.27;;
12707;SDS011;6418;50.824;4.718;2023-08-06T02:49:14;20.43;;;10.70;;
12707;SDS011;6418;50.824;4.718;2023-08-06T02:51:41;20.50;;;11.07;;
12707;SDS011;6418;50.824;4.718;2023-08-06T02:54:08;24.37;;;10.40;;
12707;SDS011;6418;50.824;4.718;2023-08-06T02:56:35;19.07;;;10.07;;
12707;SDS011;6418;50.824;4.718;2023-08-06T02:59:02;19.30;;;9.00;;
12707;SDS011;6418;50.824;4.718;2023-08-06T03:01:30;19.17;;;9.20;;
12707;SDS011;6418;50.824;4.718;2023-08-06T03:03:57;15.33;;;8.47;;
12707;SDS011;6418;50.824;4.718;2023-08-06T03:06:24;17.37;;;7.90;;
12707;SDS011;6418;50.824;4.718;2023-08-06T03:08:51;16.43;;;7.57;;
12707;SDS011;6418;50.824;4.718;2023-08-06T03:11:18;16.03;;;6.90;;
12707;SDS011;6418;50.824;4.718;2023-08-06T03:13:45;19.53;;;7.97;;
12707;SDS011;6418;50.824;4.718;2023-08-06T03:16:13;14.73;;;7.63;;
12707;SDS011;6418;50.824;4.718;2023-08-06T03:18:41;16.87;;;7.67;;
12707;SDS011;6418;50.824;4.718;2023-08-06T03:21:08;16.67;;;6.70;;
12707;SDS011;6418;50.824;4.718;2023-08-06T03:23:35;14.43;;;6.67;;
12707;SDS011;6418;50.824;4.718;2023-08-06T03:26:02;18.97;;;6.93;;
12707;SDS011;6418;50.824;4.718;2023-08-06T03:28:29;19.07;;;7.23;;
12707;SDS011;6418;50.824;4.718;2023-08-06T03:31:00;18.27;;;7.17;;
12707;SDS011;6418;50.824;4.718;2023-08-06T03:33:27;13.60;;;6.40;;
12707;SDS011;6418;50.824;4.718;2023-08-06T03:35:55;16.10;;;6.90;;
12707;SDS011;6418;50.824;4.718;2023-08-06T03:38:22;15.50;;;6.53;;
12707;SDS011;6418;50.824;4.718;2023-08-06T03:40:49;17.57;;;8.20;;
12707;SDS011;6418;50.824;4.718;2023-08-06T03:43:16;19.50;;;8.33;;
12707;SDS011;6418;50.824;4.718;2023-08-06T03:45:43;18.03;;;8.23;;
12707;SDS011;6418;50.824;4.718;2023-08-06T03:48:10;19.27;;;9.27;;
12707;SDS011;6418;50.824;4.718;2023-08-06T03:50:37;19.87;;;9.03;;
12707;SDS011;6418;50.824;4.718;2023-08-06T03:53:06;22.53;;;9.60;;
12707;SDS011;6418;50.824;4.718;2023-08-06T03:55:33;23.47;;;10.97;;
12707;SDS011;6418;50.824;4.718;2023-08-06T03:58:00;26.20;;;10.07;;
12707;SDS011;6418;50.824;4.718;2023-08-06T04:00:27;27.23;;;10.60;;
12707;SDS011;6418;50.824;4.718;2023-08-06T04:02:54;24.03;;;10.57;;
12707;SDS011;6418;50.824;4.718;2023-08-06T04:05:21;26.57;;;12.13;;
12707;SDS011;6418;50.824;4.718;2023-08-06T04:07:48;27.90;;;11.73;;
12707;SDS011;6418;50.824;4.718;2023-08-06T04:10:16;27.93;;;13.50;;
12707;SDS011;6418;50.824;4.718;2023-08-06T04:12:43;32.90;;;15.37;;
12707;SDS011;6418;50.824;4.718;2023-08-06T04:15:10;32.40;;;15.53;;
12707;SDS011;6418;50.824;4.718;2023-08-06T04:17:37;30.00;;;14.73;;
12707;SDS011;6418;50.824;4.718;2023-08-06T04:20:05;35.03;;;15.53;;
12707;SDS011;6418;50.824;4.718;2023-08-06T04:22:32;35.53;;;17.07;;
12707;SDS011;6418;50.824;4.718;2023-08-06T04:24:59;36.73;;;17.57;;
12707;SDS011;6418;50.824;4.718;2023-08-06T04:27:28;41.03;;;19.17;;
12707;SDS011;6418;50.824;4.718;2023-08-06T04:29:55;47.47;;;20.20;;
12707;SDS011;6418;50.824;4.718;2023-08-06T04:32:22;44.20;;;20.77;;
12707;SDS011;6418;50.824;4.718;2023-08-06T04:34:50;43.67;;;19.47;;
12707;SDS011;6418;50.824;4.718;2023-08-06T04:37:17;37.40;;;17.00;;
12707;SDS011;6418;50.824;4.718;2023-08-06T04:39:44;46.03;;;19.77;;
12707;SDS011;6418;50.824;4.718;2023-08-06T04:42:11;41.07;;;16.60;;
12707;SDS011;6418;50.824;4.718;2023-08-06T04:44:39;36.67;;;15.03;;
12707;SDS011;6418;50.824;4.718;2023-08-06T04:47:06;18.53;;;8.83;;
12707;SDS011;6418;50.824;4.718;2023-08-06T04:49:33;15.70;;;7.30;;
12707;SDS011;6418;50.824;4.718;2023-08-06T04:52:00;18.60;;;6.67;;
12707;SDS011;6418;50.824;4.718;2023-08-06T04:54:27;13.63;;;5.40;;
12707;SDS011;6418;50.824;4.718;2023-08-06T04:56:54;12.83;;;4.57;;
12707;SDS011;6418;50.824;4.718;2023-08-06T04:59:21;20.00;;;4.70;;
12707;SDS011;6418;50.824;4.718;2023-08-06T05:01:50;11.50;;;4.47;;
12707;SDS011;6418;50.824;4.718;2023-08-06T05:04:17;7.60;;;3.73;;
12707;SDS011;6418;50.824;4.718;2023-08-06T05:06:44;8.00;;;4.10;;
12707;SDS011;6418;50.824;4.718;2023-08-06T05:09:10;12.13;;;4.53;;
12707;SDS011;6418;50.824;4.718;2023-08-06T05:11:37;10.73;;;4.70;;
12707;SDS011;6418;50.824;4.718;2023-08-06T05:14:04;9.67;;;4.73;;
12707;SDS011;6418;50.824;4.718;2023-08-06T05:16:31;12.63;;;5.10;;
12707;SDS011;6418;50.824;4.718;2023-08-06T05:19:00;11.13;;;4.50;;
12707;SDS011;6418;50.824;4.718;2023-08-06T05:21:27;7.57;;;3.87;;
12707;SDS011;6418;50.824;4.718;2023-08-06T05:23:54;8.47;;;4.60;;
12707;SDS011;6418;50.824;4.718;2023-08-06T05:26:21;17.30;;;4.47;;
12707;SDS011;6418;50.824;4.718;2023-08-06T05:28:48;8.33;;;4.30;;
12707;SDS011;6418;50.824;4.718;2023-08-06T05:31:15;9.27;;;4.37;;
12707;SDS011;6418;50.824;4.718;2023-08-06T05:33:41;26.03;;;5.87;;
12707;SDS011;6418;50.824;4.718;2023-08-06T05:36:10;19.07;;;5.60;;
12707;SDS011;6418;50.824;4.718;2023-08-06T05:38:37;8.33;;;3.20;;
12707;SDS011;6418;50.824;4.718;2023-08-06T05:41:04;0.67;;;0.67;;
12707;SDS011;6418;50.824;4.718;2023-08-06T05:43:31;0.60;;;0.60;;
12707;SDS011;6418;50.824;4.718;2023-08-06T05:45:58;0.70;;;0.70;;
12707;SDS011;6418;50.824;4.718;2023-08-06T05:48:25;0.67;;;0.67;;
12707;SDS011;6418;50.824;4.718;2023-08-06T05:50:53;0.60;;;0.60;;
12707;SDS011;6418;50.824;4.718;2023-08-06T05:53:21;0.60;;;0.60;;
12707;SDS011;6418;50.824;4.718;2023-08-06T05:55:48;0.50;;;0.50;;
12707;SDS011;6418;50.824;4.718;2023-08-06T05:58:15;0.60;;;0.60;;
12707;SDS011;6418;50.824;4.718;2023-08-06T06:00:42;0.90;;;0.90;;
12707;SDS011;6418;50.824;4.718;2023-08-06T06:03:09;3.20;;;2.50;;
12707;SDS011;6418;50.824;4.718;2023-08-06T06:05:37;4.27;;;2.80;;
12707;SDS011;6418;50.824;4.718;2023-08-06T06:08:05;2.87;;;2.60;;
12707;SDS011;6418;50.824;4.718;2023-08-06T06:10:33;6.27;;;3.00;;
12707;SDS011;6418;50.824;4.718;2023-08-06T06:13:01;5.67;;;3.17;;
12707;SDS011;6418;50.824;4.718;2023-08-06T06:15:28;2.03;;;1.83;;
12707;SDS011;6418;50.824;4.718;2023-08-06T06:17:55;5.47;;;2.70;;
12707;SDS011;6418;50.824;4.718;2023-08-06T06:20:22;3.57;;;2.67;;
12707;SDS011;6418;50.824;4.718;2023-08-06T06:22:49;4.53;;;2.57;;
12707;SDS011;6418;50.824;4.718;2023-08-06T06:25:16;3.40;;;2.17;;
12707;SDS011;6418;50.824;4.718;2023-08-06T06:27:44;5.43;;;2.37;;
12707;SDS011;6418;50.824;4.718;2023-08-06T06:30:11;3.27;;;2.27;;
12707;SDS011;6418;50.824;4.718;2023-08-06T06:32:39;7.30;;;2.53;;
12707;SDS011;6418;50.824;4.718;2023-08-06T06:35:07;5.80;;;3.07;;
12707;SDS011;6418;50.824;4.718;2023-08-06T06:37:34;8.40;;;2.73;;
12707;SDS011;6418;50.824;4.718;2023-08-06T06:40:01;5.00;;;2.87;;
12707;SDS011;6418;50.824;4.718;2023-08-06T06:42:29;6.53;;;3.63;;
12707;SDS011;6418;50.824;4.718;2023-08-06T06:44:57;10.33;;;2.90;;
12707;SDS011;6418;50.824;4.718;2023-08-06T06:47:24;6.73;;;2.80;;
12707;SDS011;6418;50.824;4.718;2023-08-06T06:49:51;3.63;;;2.60;;
12707;SDS011;6418;50.824;4.718;2023-08-06T06:52:18;0.60;;;0.60;;
12707;SDS011;6418;50.824;4.718;2023-08-06T06:54:45;0.50;;;0.50;;
12707;SDS011;6418;50.824;4.718;2023-08-06T06:57:12;0.60;;;0.60;;
12707;SDS011;6418;50.824;4.718;2023-08-06T06:59:39;0.50;;;0.50;;
12707;SDS011;6418;50.824;4.718;2023-08-06T07:02:07;0.70;;;0.70;;
12707;SDS011;6418;50.824;4.718;2023-08-06T07:04:34;0.50;;;0.50;;
12707;SDS011;6418;50.824;4.718;2023-08-06T07:07:01;0.70;;;0.70;;
12707;SDS011;6418;50.824;4.718;2023-08-06T07:09:28;0.63;;;0.63;;
12707;SDS011;6418;50.824;4.718;2023-08-06T07:11:55;0.67;;;0.67;;
12707;SDS011;6418;50.824;4.718;2023-08-06T07:14:22;0.60;;;0.60;;
12707;SDS011;6418;50.824;4.718;2023-08-06T07:16:50;0.50;;;0.50;;
12707;SDS011;6418;50.824;4.718;2023-08-06T07:19:19;0.47;;;0.47;;
12707;SDS011;6418;50.824;4.718;2023-08-06T07:21:46;0.70;;;0.70;;
12707;SDS011;6418;50.824;4.718;2023-08-06T07:24:13;0.97;;;0.97;;
12707;SDS011;6418;50.824;4.718;2023-08-06T07:26:40;0.67;;;0.67;;
12707;SDS011;6418;50.824;4.718;2023-08-06T07:29:07;0.70;;;0.70;;
12707;SDS011;6418;50.824;4.718;2023-08-06T07:31:34;0.60;;;0.60;;
12707;SDS011;6418;50.824;4.718;2023-08-06T07:34:01;0.60;;;0.60;;
12707;SDS011;6418;50.824;4.718;2023-08-06T07:36:29;0.80;;;0.80;;
12707;SDS011;6418;50.824;4.718;2023-08-06T07:38:57;0.50;;;0.50;;
12707;SDS011;6418;50.824;4.718;2023-08-06T07:41:24;0.70;;;0.70;;
12707;SDS011;6418;50.824;4.718;2023-08-06T07:43:51;0.47;;;0.47;;
12707;SDS011;6418;50.824;4.718;2023-08-06T07:46:17;0.60;;;0.60;;
12707;SDS011;6418;50.824;4.718;2023-08-06T07:48:44;0.60;;;0.60;;
12707;SDS011;6418;50.824;4.718;2023-08-06T07:51:11;0.60;;;0.60;;
12707;SDS011;6418;50.824;4.718;2023-08-06T07:53:40;0.60;;;0.60;;
12707;SDS011;6418;50.824;4.718;2023-08-06T07:56:07;10.60;;;2.30;;
12707;SDS011;6418;50.824;4.718;2023-08-06T07:58:34;4.03;;;2.03;;
12707;SDS011;6418;50.824;4.718;2023-08-06T08:01:01;1.67;;;1.47;;
12707;SDS011;6418;50.824;4.718;2023-08-06T08:03:28;6.27;;;1.57;;
12707;SDS011;6418;50.824;4.718;2023-08-06T08:05:55;8.50;;;1.60;;
12707;SDS011;6418;50.824;4.718;2023-08-06T08:08:25;9.73;;;4.07;;
12707;SDS011;6418;50.824;4.718;2023-08-06T08:10:53;1.53;;;1.43;;
12707;SDS011;6418;50.824;4.718;2023-08-06T08:13:21;1.37;;;1.37;;
12707;SDS011;6418;50.824;4.718;2023-08-06T08:15:48;2.53;;;1.90;;
12707;SDS011;6418;50.824;4.718;2023-08-06T08:18:15;2.60;;;2.23;;
12707;SDS011;6418;50.824;4.718;2023-08-06T08:20:42;3.40;;;2.17;;
12707;SDS011;6418;50.824;4.718;2023-08-06T08:23:08;3.43;;;3.13;;
12707;SDS011;6418;50.824;4.718;2023-08-06T08:25:35;7.90;;;2.33;;
12707;SDS011;6418;50.824;4.718;2023-08-06T08:28:04;4.03;;;2.23;;
12707;SDS011;6418;50.824;4.718;2023-08-06T08:30:31;4.23;;;2.20;;
12707;SDS011;6418;50.824;4.718;2023-08-06T08:32:58;8.90;;;2.27;;
12707;SDS011;6418;50.824;4.718;2023-08-06T08:35:25;4.77;;;2.23;;
12707;SDS011;6418;50.824;4.718;2023-08-06T08:37:52;4.50;;;2.33;;
12707;SDS011;6418;50.824;4.718;2023-08-06T08:40:19;6.93;;;2.73;;
12707;SDS011;6418;50.824;4.718;2023-08-06T08:42:49;14.20;;;2.37;;
12707;SDS011;6418;50.824;4.718;2023-08-06T08:45:18;4.73;;;2.27;;
12707;SDS011;6418;50.824;4.718;2023-08-06T08:47:48;3.93;;;3.07;;
12707;SDS011;6418;50.824;4.718;2023-08-06T08:50:15;5.83;;;2.10;;
12707;SDS011;6418;50.824;4.718;2023-08-06T08:52:44;1.60;;;1.50;;
12707;SDS011;6418;50.824;4.718;2023-08-06T08:55:14;1.13;;;1.13;;
12707;SDS011;6418;50.824;4.718;2023-08-06T08:57:42;2.03;;;1.67;;
12707;SDS011;6418;50.824;4.718;2023-08-06T09:00:10;2.60;;;1.97;;
12707;SDS011;6418;50.824;4.718;2023-08-06T09:02:38;9.43;;;2.87;;
12707;SDS011;6418;50.824;4.718;2023-08-06T09:05:06;2.17;;;1.93;;
12707;SDS011;6418;50.824;4.718;2023-08-06T09:07:37;7.33;;;2.63;;
12707;SDS011;6418;50.824;4.718;2023-08-06T09:10:08;3.23;;;1.60;;
12707;SDS011;6418;50.824;4.718;2023-08-06T09:12:37;3.37;;;1.97;;
12707;SDS011;6418;50.824;4.718;2023-08-06T09:15:04;1.60;;;1.23;;
12707;SDS011;6418;50.824;4.718;2023-08-06T09:17:32;1.30;;;1.30;;
12707;SDS011;6418;50.824;4.718;2023-08-06T09:20:00;5.30;;;1.90;;
12707;SDS011;6418;50.824;4.718;2023-08-06T09:22:36;1.80;;;1.70;;
12707;SDS011;6418;50.824;4.718;2023-08-06T09:25:03;6.57;;;1.93;;
12707;SDS011;6418;50.824;4.718;2023-08-06T09:27:34;4.40;;;2.50;;
12707;SDS011;6418;50.824;4.718;2023-08-06T09:30:02;8.03;;;1.53;;
12707;SDS011;6418;50.824;4.718;2023-08-06T09:32:36;3.90;;;1.90;;
12707;SDS011;6418;50.824;4.718;2023-08-06T09:35:16;1.67;;;1.37;;
12707;SDS011;6418;50.824;4.718;2023-08-06T09:37:44;9.43;;;1.60;;
12707;SDS011;6418;50.824;4.718;2023-08-06T09:42:59;8.13;;;2.23;;
12707;SDS011;6418;50.824;4.718;2023-08-06T09:45:28;7.27;;;2.60;;
12707;SDS011;6418;50.824;4.718;2023-08-06T09:47:57;3.80;;;1.63;;
12707;SDS011;6418;50.824;4.718;2023-08-06T09:50:28;1.63;;;1.53;;
12707;SDS011;6418;50.824;4.718;2023-08-06T09:52:56;2.90;;;1.50;;
12707;SDS011;6418;50.824;4.718;2023-08-06T09:55:24;4.63;;;2.07;;
12707;SDS011;6418;50.824;4.718;2023-08-06T09:57:51;5.07;;;1.73;;
12707;SDS011;6418;50.824;4.718;2023-08-06T10:00:20;7.97;;;2.00;;
12707;SDS011;6418;50.824;4.718;2023-08-06T10:02:47;3.73;;;2.63;;
12707;SDS011;6418;50.824;4.718;2023-08-06T10:05:16;1.40;;;1.30;;
12707;SDS011;6418;50.824;4.718;2023-08-06T10:07:45;1.57;;;1.50;;
12707;SDS011;6418;50.824;4.718;2023-08-06T10:10:15;2.97;;;1.73;;
12707;SDS011;6418;50.824;4.718;2023-08-06T10:12:44;6.13;;;2.60;;
12707;SDS011;6418;50.824;4.718;2023-08-06T10:15:16;6.63;;;2.97;;
12707;SDS011;6418;50.824;4.718;2023-08-06T10:17:47;1.17;;;1.17;;
12707;SDS011;6418;50.824;4.718;2023-08-06T10:20:15;7.90;;;2.70;;
12707;SDS011;6418;50.824;4.718;2023-08-06T10:22:42;2.20;;;1.90;;
12707;SDS011;6418;50.824;4.718;2023-08-06T10:25:13;8.80;;;3.10;;
12707;SDS011;6418;50.824;4.718;2023-08-06T10:27:53;2.33;;;2.00;;
12707;SDS011;6418;50.824;4.718;2023-08-06T10:30:21;1.03;;;1.03;;
12707;SDS011;6418;50.824;4.718;2023-08-06T10:32:50;2.37;;;1.90;;
12707;SDS011;6418;50.824;4.718;2023-08-06T10:35:30;1.10;;;1.10;;
12707;SDS011;6418;50.824;4.718;2023-08-06T10:37:58;4.33;;;3.70;;
12707;SDS011;6418;50.824;4.718;2023-08-06T10:40:30;3.90;;;1.43;;
12707;SDS011;6418;50.824;4.718;2023-08-06T10:42:58;3.03;;;2.17;;
12707;SDS011;6418;50.824;4.718;2023-08-06T10:45:26;4.10;;;1.97;;
12707;SDS011;6418;50.824;4.718;2023-08-06T10:47:55;6.70;;;3.13;;
12707;SDS011;6418;50.824;4.718;2023-08-06T10:50:23;6.30;;;3.33;;
12707;SDS011;6418;50.824;4.718;2023-08-06T10:52:51;1.53;;;1.43;;
12707;SDS011;6418;50.824;4.718;2023-08-06T10:55:24;1.80;;;1.70;;
12707;SDS011;6418;50.824;4.718;2023-08-06T10:57:54;1.53;;;1.50;;
12707;SDS011;6418;50.824;4.718;2023-08-06T11:00:22;1.67;;;1.53;;
12707;SDS011;6418;50.824;4.718;2023-08-06T11:02:49;4.50;;;2.23;;
12707;SDS011;6418;50.824;4.718;2023-08-06T11:05:18;3.07;;;1.83;;
12707;SDS011;6418;50.824;4.718;2023-08-06T11:07:45;1.90;;;1.33;;
12707;SDS011;6418;50.824;4.718;2023-08-06T11:10:13;2.77;;;2.47;;
12707;SDS011;6418;50.824;4.718;2023-08-06T11:12:40;5.73;;;1.97;;
12707;SDS011;6418;50.824;4.718;2023-08-06T11:15:09;4.40;;;2.30;;
12707;SDS011;6418;50.824;4.718;2023-08-06T11:17:36;1.77;;;1.67;;
12707;SDS011;6418;50.824;4.718;2023-08-06T11:20:05;6.33;;;1.67;;
12707;SDS011;6418;50.824;4.718;2023-08-06T11:22:33;3.97;;;1.57;;
12707;SDS011;6418;50.824;4.718;2023-08-06T11:25:02;1.23;;;1.17;;
12707;SDS011;6418;50.824;4.718;2023-08-06T11:27:29;9.40;;;2.47;;
12707;SDS011;6418;50.824;4.718;2023-08-06T11:29:56;3.90;;;1.73;;
12707;SDS011;6418;50.824;4.718;2023-08-06T11:32:24;8.60;;;3.90;;
12707;SDS011;6418;50.824;4.718;2023-08-06T11:34:52;9.90;;;1.93;;
12707;SDS011;6418;50.824;4.718;2023-08-06T11:37:20;5.43;;;2.27;;
12707;SDS011;6418;50.824;4.718;2023-08-06T11:39:49;8.80;;;2.83;;
12707;SDS011;6418;50.824;4.718;2023-08-06T11:42:16;2.70;;;2.03;;
12707;SDS011;6418;50.824;4.718;2023-08-06T11:44:43;4.57;;;2.53;;
12707;SDS011;6418;50.824;4.718;2023-08-06T11:47:12;9.90;;;2.67;;
12707;SDS011;6418;50.824;4.718;2023-08-06T11:49:42;4.47;;;1.90;;
12707;SDS011;6418;50.824;4.718;2023-08-06T11:52:13;1.90;;;1.70;;
12707;SDS011;6418;50.824;4.718;2023-08-06T11:54:41;4.97;;;2.53;;
12707;SDS011;6418;50.824;4.718;2023-08-06T11:57:08;2.60;;;1.50;;
12707;SDS011;6418;50.824;4.718;2023-08-06T11:59:37;2.47;;;2.27;;
12707;SDS011;6418;50.824;4.718;2023-08-06T12:02:04;4.57;;;1.83;;
12707;SDS011;6418;50.824;4.718;2023-08-06T12:07:26;1.97;;;1.77;;
12707;SDS011;6418;50.824;4.718;2023-08-06T12:09:53;3.17;;;2.80;;
12707;SDS011;6418;50.824;4.718;2023-08-06T12:12:20;4.07;;;1.77;;
12707;SDS011;6418;50.824;4.718;2023-08-06T12:14:47;1.30;;;1.20;;
12707;SDS011;6418;50.824;4.718;2023-08-06T12:17:14;4.43;;;1.70;;
12707;SDS011;6418;50.824;4.718;2023-08-06T12:19:41;1.27;;;1.27;;
12707;SDS011;6418;50.824;4.718;2023-08-06T12:22:09;1.57;;;1.47;;
12707;SDS011;6418;50.824;4.718;2023-08-06T12:24:38;7.40;;;2.23;;
12707;SDS011;6418;50.824;4.718;2023-08-06T12:27:05;1.73;;;1.63;;
12707;SDS011;6418;50.824;4.718;2023-08-06T12:29:32;4.17;;;1.90;;
12707;SDS011;6418;50.824;4.718;2023-08-06T12:31:59;1.60;;;1.50;;
12707;SDS011;6418;50.824;4.718;2023-08-06T12:34:26;2.97;;;2.03;;
12707;SDS011;6418;50.824;4.718;2023-08-06T12:36:53;5.30;;;2.43;;
12707;SDS011;6418;50.824;4.718;2023-08-06T12:39:21;2.37;;;1.70;;
12707;SDS011;6418;50.824;4.718;2023-08-06T12:41:48;5.03;;;2.13;;
12707;SDS011;6418;50.824;4.718;2023-08-06T12:44:16;1.70;;;1.50;;
12707;SDS011;6418;50.824;4.718;2023-08-06T12:46:42;10.87;;;2.67;;
12707;SDS011;6418;50.824;4.718;2023-08-06T12:49:09;3.20;;;1.97;;
12707;SDS011;6418;50.824;4.718;2023-08-06T12:51:36;2.63;;;2.30;;
12707;SDS011;6418;50.824;4.718;2023-08-06T12:54:03;6.63;;;3.13;;
12707;SDS011;6418;50.824;4.718;2023-08-06T12:56:32;1.60;;;1.50;;
12707;SDS011;6418;50.824;4.718;2023-08-06T12:58:58;4.13;;;2.43;;
12707;SDS011;6418;50.824;4.718;2023-08-06T13:01:25;6.83;;;2.23;;
12707;SDS011;6418;50.824;4.718;2023-08-06T13:03:52;1.77;;;1.67;;
12707;SDS011;6418;50.824;4.718;2023-08-06T13:06:19;2.30;;;2.10;;
12707;SDS011;6418;50.824;4.718;2023-08-06T13:08:46;5.67;;;2.40;;
12707;SDS011;6418;50.824;4.718;2023-08-06T13:11:13;5.53;;;2.77;;
12707;SDS011;6418;50.824;4.718;2023-08-06T13:13:42;6.07;;;3.43;;
12707;SDS011;6418;50.824;4.718;2023-08-06T13:16:09;11.10;;;4.07;;
12707;SDS011;6418;50.824;4.718;2023-08-06T13:18:36;10.83;;;3.33;;
12707;SDS011;6418;50.824;4.718;2023-08-06T13:21:03;9.90;;;3.50;;
12707;SDS011;6418;50.824;4.718;2023-08-06T13:23:30;9.30;;;3.27;;
12707;SDS011;6418;50.824;4.718;2023-08-06T13:25:57;12.20;;;3.60;;
12707;SDS011;6418;50.824;4.718;2023-08-06T13:28:24;7.63;;;3.20;;
12707;SDS011;6418;50.824;4.718;2023-08-06T13:30:52;12.20;;;3.33;;
12707;SDS011;6418;50.824;4.718;2023-08-06T13:33:19;8.87;;;3.90;;
12707;SDS011;6418;50.824;4.718;2023-08-06T13:35:46;14.27;;;3.50;;
12707;SDS011;6418;50.824;4.718;2023-08-06T13:38:14;12.77;;;4.37;;
12707;SDS011;6418;50.824;4.718;2023-08-06T13:40:41;13.33;;;3.90;;
12707;SDS011;6418;50.824;4.718;2023-08-06T13:43:09;10.37;;;3.30;;
12707;SDS011;6418;50.824;4.718;2023-08-06T13:45:36;11.97;;;3.50;;
12707;SDS011;6418;50.824;4.718;2023-08-06T13:48:04;9.53;;;3.10;;
12707;SDS011;6418;50.824;4.718;2023-08-06T13:50:31;7.63;;;2.97;;
12707;SDS011;6418;50.824;4.718;2023-08-06T13:52:58;11.87;;;3.47;;
12707;SDS011;6418;50.824;4.718;2023-08-06T13:55:26;10.73;;;3.30;;
12707;SDS011;6418;50.824;4.718;2023-08-06T13:57:53;12.23;;;3.30;;
12707;SDS011;6418;50.824;4.718;2023-08-06T14:00:19;8.80;;;3.23;;
12707;SDS011;6418;50.824;4.718;2023-08-06T14:02:46;5.73;;;2.63;;
12707;SDS011;6418;50.824;4.718;2023-08-06T14:05:15;8.20;;;3.10;;
12707;SDS011;6418;50.824;4.718;2023-08-06T14:07:42;10.33;;;3.17;;
12707;SDS011;6418;50.824;4.718;2023-08-06T14:10:09;6.20;;;3.00;;
12707;SDS011;6418;50.824;4.718;2023-08-06T14:12:36;5.80;;;2.87;;
12707;SDS011;6418;50.824;4.718;2023-08-06T14:15:03;8.07;;;3.07;;
12707;SDS011;6418;50.824;4.718;2023-08-06T14:17:30;9.80;;;2.57;;
12707;SDS011;6418;50.824;4.718;2023-08-06T14:19:57;6.67;;;2.87;;
12707;SDS011;6418;50.824;4.718;2023-08-06T14:22:27;12.40;;;3.43;;
12707;SDS011;6418;50.824;4.718;2023-08-06T14:24:55;5.47;;;2.83;;
12707;SDS011;6418;50.824;4.718;2023-08-06T14:27:23;6.13;;;2.63;;
12707;SDS011;6418;50.824;4.718;2023-08-06T14:29:51;5.23;;;2.87;;
12707;SDS011;6418;50.824;4.718;2023-08-06T14:32:18;6.10;;;2.97;;
12707;SDS011;6418;50.824;4.718;2023-08-06T14:34:45;10.43;;;3.23;;
12707;SDS011;6418;50.824;4.718;2023-08-06T14:37:12;14.20;;;3.07;;
12707;SDS011;6418;50.824;4.718;2023-08-06T14:39:40;5.90;;;2.77;;
12707;SDS011;6418;50.824;4.718;2023-08-06T14:42:07;7.87;;;3.07;;
12707;SDS011;6418;50.824;4.718;2023-08-06T14:44:34;18.07;;;3.67;;
12707;SDS011;6418;50.824;4.718;2023-08-06T14:47:01;9.77;;;3.53;;
12707;SDS011;6418;50.824;4.718;2023-08-06T14:49:28;8.27;;;3.70;;
12707;SDS011;6418;50.824;4.718;2023-08-06T14:51:55;8.73;;;3.87;;
12707;SDS011;6418;50.824;4.718;2023-08-06T14:54:24;10.07;;;3.37;;
12707;SDS011;6418;50.824;4.718;2023-08-06T14:56:52;7.60;;;3.20;;
12707;SDS011;6418;50.824;4.718;2023-08-06T14:59:19;13.27;;;3.17;;
12707;SDS011;6418;50.824;4.718;2023-08-06T15:01:46;7.50;;;3.37;;